Time;durP1;ratioP1;P1;durP2;ratioP2;P2;SDS_P1;SDS_P2;PMS_P1;PMS_P2;Temp;Humidity;BMP_temperature;BMP_pressure;BME280_temperature;BME280_humidity;BME280_pressure;Samples;Min_cycle;Max_cycle;Signal;HPM_P1;HPM_P2
2022/07/05 00:00:45;;;;;;;5.85;1.55;;;;;;;12.37;100.00;155631.97;4983332;28;20034;-79
2022/07/05 00:03:11;;;;;;;5.88;1.58;;;;;;;12.38;100.00;155633.28;4984889;28;20034;-80
2022/07/05 00:05:37;;;;;;;3.90;1.60;;;;;;;12.39;100.00;155637.13;4975089;28;20038;-79
2022/07/05 00:08:04;;;;;;;8.45;1.83;;;;;;;12.31;100.00;155615.31;4971425;28;20416;-79
2022/07/05 00:10:31;;;;;;;4.53;1.58;;;;;;;12.27;100.00;155607.59;4969057;28;20454;-79
2022/07/05 00:12:56;;;;;;;5.80;1.42;;;;;;;12.32;100.00;155617.84;4957325;28;20045;-79
2022/07/05 00:15:22;;;;;;;7.85;1.58;;;;;;;12.32;100.00;155617.84;4975198;28;20038;-78
2022/07/05 00:17:48;;;;;;;6.07;1.38;;;;;;;12.22;100.00;155594.78;4988873;28;20049;-78
2022/07/05 00:20:14;;;;;;;3.97;1.40;;;;;;;12.19;100.00;155587.06;4967352;28;20089;-79
2022/07/05 00:22:40;;;;;;;4.25;1.45;;;;;;;12.15;100.00;155576.78;4987172;28;20456;-79
2022/07/05 00:25:06;;;;;;;4.65;1.30;;;;;;;12.01;100.00;155542.09;4986572;28;20062;-78
2022/07/05 00:27:31;;;;;;;3.47;1.35;;;;;;;12.01;100.00;155540.81;4990398;28;20042;-77
2022/07/05 00:29:57;;;;;;;4.45;1.60;;;;;;;11.93;100.00;155521.56;4981908;28;20097;-78
2022/07/05 00:32:22;;;;;;;3.92;1.48;;;;;;;11.85;100.00;155502.25;4947759;28;20069;-78
2022/07/05 00:34:48;;;;;;;5.47;1.65;;;;;;;11.77;100.00;155481.72;4950613;28;20045;-79
2022/07/05 00:37:14;;;;;;;4.35;1.40;;;;;;;11.65;100.00;155452.16;4970801;28;20043;-80
2022/07/05 00:39:40;;;;;;;3.15;1.75;;;;;;;11.59;100.00;155436.78;4959177;28;20090;-81
2022/07/05 00:42:05;;;;;;;4.78;1.55;;;;;;;11.59;100.00;155436.78;4962615;28;20050;-81
2022/07/05 00:44:37;;;;;;;5.15;1.73;;;;;;;11.60;100.00;155439.34;4983569;28;20092;-82
2022/07/05 00:47:07;;;;;;;3.75;1.80;;;;;;;11.55;100.00;155426.50;4945762;28;20501;-80
2022/07/05 00:49:34;;;;;;;4.22;1.45;;;;;;;11.52;100.00;155418.78;4981690;28;20050;-80
2022/07/05 00:52:00;;;;;;;3.78;1.45;;;;;;;11.47;100.00;155405.94;4970566;28;20126;-78
2022/07/05 00:54:28;;;;;;;7.40;1.75;;;;;;;11.42;100.00;155394.41;5006504;28;20058;-79
2022/07/05 00:56:54;;;;;;;2.97;1.60;;;;;;;11.42;100.00;155393.13;4984029;28;20039;-78
2022/07/05 00:59:19;;;;;;;5.32;1.48;;;;;;;11.45;100.00;155402.13;4989194;28;20039;-78
2022/07/05 01:01:45;;;;;;;3.95;1.30;;;;;;;11.42;100.00;155394.41;4992253;28;20049;-80
2022/07/05 01:04:12;;;;;;;6.15;1.52;;;;;;;11.37;100.00;155380.28;4973352;28;20066;-79
2022/07/05 01:06:39;;;;;;;5.40;1.60;;;;;;;11.28;100.00;155358.44;4982135;28;20062;-80
2022/07/05 01:09:05;;;;;;;5.03;1.80;;;;;;;11.25;100.00;155350.78;4990041;28;20042;-80
2022/07/05 01:11:31;;;;;;;4.40;1.55;;;;;;;11.26;100.00;155353.31;4971883;28;20070;-80
2022/07/05 01:14:00;;;;;;;8.60;1.90;;;;;;;11.16;100.00;155327.66;4990760;28;20038;-79
2022/07/05 01:16:26;;;;;;;3.42;1.73;;;;;;;11.23;100.00;155346.91;4968173;28;20058;-79
2022/07/05 01:18:51;;;;;;;3.28;1.60;;;;;;;11.17;100.00;155330.22;4990959;28;20038;-79
2022/07/05 01:21:20;;;;;;;4.32;1.70;;;;;;;11.22;100.00;155343.06;4992278;28;20034;-80
2022/07/05 01:23:47;;;;;;;5.68;1.75;;;;;;;11.25;100.00;155350.78;4987738;28;20093;-79
2022/07/05 01:26:12;;;;;;;5.57;1.77;;;;;;;11.17;100.00;155330.22;4986527;28;20489;-80
2022/07/05 01:28:38;;;;;;;3.55;1.48;;;;;;;11.18;100.00;155334.06;4973106;28;20081;-79
2022/07/05 01:31:04;;;;;;;2.97;1.70;;;;;;;11.14;100.00;155322.53;4980167;28;20505;-79
2022/07/05 01:33:30;;;;;;;4.47;1.60;;;;;;;11.09;100.00;155312.28;4984217;28;20044;-79
2022/07/05 01:35:57;;;;;;;5.68;2.22;;;;;;;11.08;100.00;155308.44;4965019;28;20038;-80
2022/07/05 01:38:24;;;;;;;4.88;1.88;;;;;;;11.07;100.00;155305.84;4974014;28;20073;-80
2022/07/05 01:40:51;;;;;;;5.60;1.92;;;;;;;11.06;100.00;155303.28;4955121;28;20047;-80
2022/07/05 01:43:22;;;;;;;3.90;1.70;;;;;;;10.96;100.00;155277.59;4981295;28;20049;-79
2022/07/05 01:45:48;;;;;;;5.43;1.70;;;;;;;10.91;100.00;155267.34;5002502;28;20059;-80
2022/07/05 01:48:17;;;;;;;4.00;1.90;;;;;;;10.94;100.00;155273.75;4984319;28;20042;-78
2022/07/05 01:50:49;;;;;;;3.60;1.63;;;;;;;10.89;100.00;155262.22;4974592;28;20043;-79
2022/07/05 01:53:18;;;;;;;3.35;1.90;;;;;;;10.95;100.00;155275.06;4951832;28;20494;-79
2022/07/05 01:55:45;;;;;;;3.08;1.75;;;;;;;10.85;100.00;155250.66;4968957;28;20058;-79
2022/07/05 01:58:11;;;;;;;6.32;1.90;;;;;;;10.80;100.00;155239.13;4967505;28;20404;-80
2022/07/05 02:00:50;;;;;;;8.07;2.95;;;;;;;10.72;100.00;155218.59;4988552;28;20049;-79
2022/07/05 02:03:16;;;;;;;3.85;1.80;;;;;;;10.67;100.00;155207.03;4970401;28;20401;-80
2022/07/05 02:05:43;;;;;;;4.43;1.80;;;;;;;10.68;100.00;155209.63;4986708;28;20077;-79
2022/07/05 02:08:14;;;;;;;4.95;2.00;;;;;;;10.65;100.00;155200.63;4975071;28;20049;-78
2022/07/05 02:10:41;;;;;;;6.70;2.20;;;;;;;10.58;100.00;155182.66;4984727;28;20034;-79
2022/07/05 02:13:08;;;;;;;2.95;1.80;;;;;;;10.54;100.00;155173.69;4957892;28;20408;-82
2022/07/05 02:15:40;;;;;;;6.00;1.83;;;;;;;10.60;100.00;155189.06;4971643;28;20041;-80
2022/07/05 02:18:08;;;;;;;4.72;1.90;;;;;;;10.63;100.00;155196.78;4975657;28;20053;-80
2022/07/05 02:20:39;;;;;;;5.50;1.98;;;;;;;10.58;100.00;155183.94;4975351;28;20058;-80
2022/07/05 02:23:07;;;;;;;4.95;1.90;;;;;;;10.59;100.00;155185.25;4967120;28;20468;-80
2022/07/05 02:25:33;;;;;;;7.70;1.90;;;;;;;10.52;100.00;155169.81;4993916;28;20567;-79
2022/07/05 02:28:02;;;;;;;4.13;1.83;;;;;;;10.50;100.00;155163.44;4970655;28;20042;-79
2022/07/05 02:30:29;;;;;;;5.53;2.30;;;;;;;10.54;100.00;155172.41;4990610;28;20486;-80
2022/07/05 02:32:55;;;;;;;5.57;2.45;;;;;;;10.52;100.00;155168.56;4968988;28;20113;-79
2022/07/05 02:35:21;;;;;;;8.27;2.25;;;;;;;10.61;100.00;155190.38;4992955;28;20473;-80
2022/07/05 02:37:46;;;;;;;3.03;2.25;;;;;;;10.52;100.00;155169.81;4989910;28;20046;-79
2022/07/05 02:40:13;;;;;;;5.80;2.38;;;;;;;10.42;100.00;155142.91;4984833;28;20049;-81
2022/07/05 02:42:44;;;;;;;4.15;2.20;;;;;;;10.43;100.00;155145.47;4989575;28;20049;-81
2022/07/05 02:45:12;;;;;;;5.38;2.20;;;;;;;10.41;100.00;155141.59;4969349;28;20117;-81
2022/07/05 02:47:39;;;;;;;4.78;2.08;;;;;;;10.40;100.00;155137.78;4988306;28;20069;-81
2022/07/05 02:50:07;;;;;;;3.70;2.00;;;;;;;10.33;100.00;155122.38;4959691;28;20057;-81
2022/07/05 02:52:35;;;;;;;5.53;2.28;;;;;;;10.32;100.00;155118.50;4982096;28;20057;-78
2022/07/05 02:55:05;;;;;;;4.53;2.38;;;;;;;10.32;100.00;155119.81;4984421;28;20042;-80
2022/07/05 02:57:31;;;;;;;5.07;2.58;;;;;;;10.32;100.00;155119.81;4981948;28;20189;-80
2022/07/05 02:59:58;;;;;;;4.32;2.10;;;;;;;10.25;100.00;155101.81;4970058;28;20038;-80
2022/07/05 03:02:34;;;;;;;6.88;2.65;;;;;;;10.24;100.00;155097.94;4973957;28;20042;-80
2022/07/05 03:05:00;;;;;;;4.45;2.25;;;;;;;10.24;100.00;155099.22;4968585;28;20035;-80
2022/07/05 03:07:26;;;;;;;6.88;2.60;;;;;;;10.26;100.00;155104.34;4950172;28;20105;-80
2022/07/05 03:09:51;;;;;;;4.88;2.28;;;;;;;10.29;100.00;155112.06;4985242;28;20780;-80
2022/07/05 03:12:17;;;;;;;9.90;2.50;;;;;;;10.20;100.00;155088.97;4972619;28;20042;-79
2022/07/05 03:14:43;;;;;;;6.07;2.28;;;;;;;10.25;100.00;155101.81;4988278;28;20173;-81
2022/07/05 03:17:09;;;;;;;5.90;2.50;;;;;;;10.31;100.00;155115.97;4967437;28;20137;-81
2022/07/05 03:19:35;;;;;;;5.13;2.15;;;;;;;10.33;100.00;155122.38;4977988;28;20034;-82
2022/07/05 03:22:02;;;;;;;4.93;2.13;;;;;;;10.33;100.00;155121.09;4980180;28;20053;-81
2022/07/05 03:24:27;;;;;;;4.60;2.25;;;;;;;10.42;100.00;155142.91;4959390;28;20035;-80
2022/07/05 03:26:54;;;;;;;4.35;2.15;;;;;;;10.44;100.00;155149.31;4960762;28;20038;-82
2022/07/05 03:29:20;;;;;;;6.53;2.58;;;;;;;10.45;100.00;155150.59;4984540;28;20049;-81
2022/07/05 03:31:45;;;;;;;6.70;2.70;;;;;;;10.46;100.00;155154.44;4976331;28;20034;-80
2022/07/05 03:34:11;;;;;;;4.93;2.60;;;;;;;10.41;100.00;155141.59;4966735;28;20627;-80
2022/07/05 03:36:37;;;;;;;6.95;2.42;;;;;;;10.48;100.00;155159.56;4974858;28;20049;-81
2022/07/05 03:39:08;;;;;;;8.20;2.60;;;;;;;10.53;100.00;155171.13;4966307;28;20034;-82
2022/07/05 03:41:34;;;;;;;6.88;2.90;;;;;;;10.49;100.00;155162.16;4976236;28;20035;-81
2022/07/05 03:44:02;;;;;;;3.63;2.58;;;;;;;10.54;100.00;155173.69;4966189;28;20453;-80
2022/07/05 03:46:28;;;;;;;5.07;2.45;;;;;;;10.54;100.00;155173.69;4965515;28;20051;-80
2022/07/05 03:48:54;;;;;;;3.28;2.40;;;;;;;10.50;100.00;155164.69;4960721;28;20042;-81
2022/07/05 03:51:20;;;;;;;4.03;2.70;;;;;;;10.55;100.00;155176.28;4968429;28;20035;-81
2022/07/05 03:53:46;;;;;;;4.05;2.35;;;;;;;10.52;100.00;155169.81;4973608;28;20038;-80
2022/07/05 03:56:12;;;;;;;5.18;2.20;;;;;;;10.65;100.00;155201.91;4949012;28;20060;-80
2022/07/05 03:58:38;;;;;;;8.27;2.97;;;;;;;10.60;100.00;155189.06;4974803;28;20050;-81
2022/07/05 04:01:05;;;;;;;5.30;2.40;;;;;;;10.64;100.00;155199.38;4982233;28;20031;-81
2022/07/05 04:03:31;;;;;;;5.70;2.33;;;;;;;10.74;100.00;155223.72;4990346;28;20048;-81
2022/07/05 04:05:58;;;;;;;8.10;2.58;;;;;;;10.80;100.00;155239.13;4965057;28;20042;-81
2022/07/05 04:08:24;;;;;;;4.20;2.65;;;;;;;10.95;100.00;155275.06;4955909;28;20451;-81
2022/07/05 04:10:49;;;;;;;5.53;3.17;;;;;;;11.07;100.00;155307.09;4992128;28;20389;-81
2022/07/05 04:13:18;;;;;;;6.63;3.15;;;;;;;11.18;100.00;155334.06;4973043;28;20035;-80
2022/07/05 04:15:44;;;;;;;4.35;2.50;;;;;;;11.29;100.00;155362.31;4988866;28;20500;-80
2022/07/05 04:18:10;;;;;;;5.53;3.05;;;;;;;11.37;100.00;155380.28;4951422;28;20046;-81
2022/07/05 04:20:38;;;;;;;7.18;2.78;;;;;;;11.46;100.00;155404.66;4989524;28;20065;-80
2022/07/05 04:23:06;;;;;;;6.13;2.95;;;;;;;11.54;100.00;155423.91;4946969;28;20045;-80
2022/07/05 04:25:31;;;;;;;5.90;2.78;;;;;;;11.65;100.00;155450.91;4965584;28;20038;-80
2022/07/05 04:28:06;;;;;;;5.55;3.00;;;;;;;11.56;100.00;155427.78;4969899;28;20050;-80
2022/07/05 04:30:34;;;;;;;6.45;2.72;;;;;;;11.53;100.00;155421.38;4973257;28;20417;-81
2022/07/05 04:33:01;;;;;;;3.70;2.70;;;;;;;11.50;100.00;155414.94;4967483;28;20039;-80
2022/07/05 04:35:26;;;;;;;5.82;2.50;;;;;;;11.54;100.00;155422.66;4967877;28;20580;-79
2022/07/05 04:37:53;;;;;;;3.50;2.65;;;;;;;11.57;100.00;155431.63;4948937;28;20037;-80
2022/07/05 04:40:20;;;;;;;4.85;2.13;;;;;;;11.62;100.00;155443.16;4964188;28;20038;-80
2022/07/05 04:42:46;;;;;;;5.40;2.50;;;;;;;11.64;100.00;155449.63;4965017;28;20045;-81
2022/07/05 04:45:14;;;;;;;4.63;2.50;;;;;;;11.73;100.00;155470.16;4971837;28;20038;-81
2022/07/05 04:47:39;;;;;;;4.63;2.75;;;;;;;11.72;100.00;155467.59;4988100;28;20045;-81
2022/07/05 04:50:07;;;;;;;6.57;2.58;;;;;;;11.86;100.00;155503.53;4949436;28;20509;-81
2022/07/05 04:52:33;;;;;;;3.60;2.42;;;;;;;11.98;100.00;155533.09;5000302;28;20046;-81
2022/07/05 04:54:59;;;;;;;6.63;2.70;;;;;;;12.20;100.00;155588.31;5003392;28;20038;-80
2022/07/05 04:57:24;;;;;;;5.28;3.40;;;;;;;12.48;100.00;155657.69;4959922;28;20050;-82
2022/07/05 04:59:50;;;;;;;5.78;2.78;;;;;;;12.59;100.00;155687.22;4962758;28;20468;-79
2022/07/05 05:02:15;;;;;;;10.13;2.60;;;;;;;12.74;100.00;155723.22;4960734;28;20043;-80
2022/07/05 05:04:41;;;;;;;9.50;2.85;;;;;;;12.82;100.00;155743.75;4986755;28;20161;-80
2022/07/05 05:07:07;;;;;;;5.38;2.40;;;;;;;12.89;100.00;155761.75;4979799;28;20134;-80
2022/07/05 05:09:32;;;;;;;4.00;2.20;;;;;;;13.10;100.00;155814.41;4993473;28;20515;-79
2022/07/05 05:11:58;;;;;;;6.72;2.50;;;;;;;13.20;100.00;155838.81;4968403;28;20038;-81
2022/07/05 05:14:23;;;;;;;4.40;1.58;;;;;;;13.22;100.00;155845.28;4949567;28;20042;-81
2022/07/05 05:16:49;;;;;;;4.15;2.13;;;;;;;13.46;100.00;155903.16;4974092;28;20034;-81
2022/07/05 05:19:15;;;;;;;6.70;2.05;;;;;;;13.57;100.00;155932.69;4972488;28;20078;-79
2022/07/05 05:21:40;;;;;;;5.60;2.38;;;;;;;13.80;100.00;155989.25;4979666;28;20034;-81
2022/07/05 05:24:06;;;;;;;7.28;2.15;;;;;;;13.90;100.00;156015.00;4964745;28;20380;-80
2022/07/05 05:26:32;;;;;;;4.45;1.88;;;;;;;13.91;100.00;156016.25;4974081;28;20463;-81
2022/07/05 05:28:58;;;;;;;6.32;1.63;;;;;;;13.90;100.00;156013.69;4965856;28;20065;-79
2022/07/05 05:31:23;;;;;;;5.50;1.63;;;;;;;13.94;100.00;156025.28;4985480;28;20034;-80
2022/07/05 05:33:49;;;;;;;4.88;1.33;;;;;;;14.04;100.00;156049.69;4996638;28;20092;-80
2022/07/05 05:36:15;;;;;;;3.63;1.33;;;;;;;14.16;100.00;156079.25;4962689;28;20119;-81
2022/07/05 05:38:40;;;;;;;6.40;1.40;;;;;;;14.20;100.00;156089.53;5008205;28;20416;-80
2022/07/05 05:41:06;;;;;;;5.28;1.75;;;;;;;14.33;100.00;156121.69;4974311;28;20042;-80
2022/07/05 05:43:32;;;;;;;9.70;2.70;;;;;;;14.40;100.00;156140.97;4988181;28;20038;-79
2022/07/05 05:45:58;;;;;;;6.88;1.50;;;;;;;14.53;100.00;156171.84;4965297;28;20178;-79
2022/07/05 05:48:24;;;;;;;4.35;1.83;;;;;;;14.59;100.00;156188.59;4966048;28;20124;-78
2022/07/05 05:50:50;;;;;;;9.10;1.88;;;;;;;14.68;100.00;156210.47;4985845;28;20043;-79
2022/07/05 05:53:16;;;;;;;12.55;2.10;;;;;;;14.78;100.00;156236.19;4969942;28;20853;-79
2022/07/05 05:55:41;;;;;;;5.72;1.50;;;;;;;14.93;100.00;156272.22;5012192;28;20034;-80
2022/07/05 05:58:15;;;;;;;7.75;1.85;;;;;;;15.10;100.00;156315.94;5007939;28;20085;-80
2022/07/05 06:00:41;;;;;;;17.88;3.30;;;;;;;15.23;100.00;156346.84;5015613;28;20026;-80
2022/07/05 06:03:07;;;;;;;17.90;3.20;;;;;;;15.28;100.00;156359.72;5008171;28;20867;-81
2022/07/05 06:05:32;;;;;;;15.55;3.65;;;;;;;15.32;100.00;156370.00;5016462;28;20045;-78
2022/07/05 06:07:58;;;;;;;12.02;2.30;;;;;;;15.42;100.00;156395.72;4998684;28;20111;-78
2022/07/05 06:10:27;;;;;;;3.47;1.30;;;;;;;15.64;100.00;156449.78;5016823;28;20057;-78
2022/07/05 06:12:54;;;;;;;3.72;1.40;;;;;;;15.77;100.00;156484.56;5005257;28;20111;-78
2022/07/05 06:15:21;;;;;;;3.78;1.23;;;;;;;15.82;100.00;156494.88;5004364;28;20035;-80
2022/07/05 06:17:46;;;;;;;8.93;1.33;;;;;;;15.87;99.56;156509.03;4982540;28;20047;-79
2022/07/05 06:20:14;;;;;;;6.35;1.25;;;;;;;15.93;99.29;156524.44;5010874;28;20095;-79
2022/07/05 06:22:40;;;;;;;3.17;1.00;;;;;;;16.10;100.00;156565.66;4989120;28;20671;-80
2022/07/05 06:25:07;;;;;;;3.17;0.95;;;;;;;16.12;98.38;156570.81;4963449;28;20041;-79
2022/07/05 06:27:38;;;;;;;8.15;1.20;;;;;;;16.21;100.00;156592.72;4983529;28;20030;-80
2022/07/05 06:30:04;;;;;;;4.55;1.00;;;;;;;16.33;99.63;156623.56;4989038;28;20062;-81
2022/07/05 06:32:30;;;;;;;3.70;0.90;;;;;;;16.45;98.84;156653.22;4973157;28;20045;-80
2022/07/05 06:34:55;;;;;;;3.80;1.02;;;;;;;16.62;96.20;156697.00;4984287;28;20925;-79
2022/07/05 06:37:21;;;;;;;2.80;1.10;;;;;;;16.74;97.15;156727.91;4973860;28;20523;-79
2022/07/05 06:39:47;;;;;;;1.98;0.90;;;;;;;16.84;93.09;156751.09;5010027;28;20042;-79
2022/07/05 06:42:13;;;;;;;6.22;1.23;;;;;;;16.95;95.89;156778.16;4973012;28;20545;-79
2022/07/05 06:44:38;;;;;;;7.32;1.00;;;;;;;17.04;90.26;156802.63;4960341;28;20030;-79
2022/07/05 06:47:04;;;;;;;4.72;1.40;;;;;;;17.13;89.72;156824.53;5009856;28;20132;-80
2022/07/05 06:49:30;;;;;;;2.75;0.85;;;;;;;17.14;87.14;156827.13;4992138;28;20708;-79
2022/07/05 06:51:55;;;;;;;5.88;1.05;;;;;;;17.22;89.69;156847.72;4956019;28;20045;-80
2022/07/05 06:54:21;;;;;;;4.82;0.90;;;;;;;17.39;86.70;156890.22;4990640;28;20065;-80
2022/07/05 06:56:46;;;;;;;6.07;1.25;;;;;;;17.37;86.44;156885.09;4977026;28;20077;-78
2022/07/05 06:59:12;;;;;;;2.67;0.65;;;;;;;17.47;88.39;156910.81;4981925;28;20045;-81
2022/07/05 07:01:37;;;;;;;8.07;0.80;;;;;;;17.66;91.69;156957.22;4988735;28;20038;-79
2022/07/05 07:04:03;;;;;;;5.47;1.10;;;;;;;17.87;85.00;157010.09;4968771;28;20035;-79
2022/07/05 07:06:29;;;;;;;5.57;1.08;;;;;;;18.14;87.25;157077.09;4987965;28;20551;-79
2022/07/05 07:11:38;;;;;;;7.40;1.00;;;;;;;18.73;83.77;157226.63;4996023;28;20042;-78
2022/07/05 07:14:04;;;;;;;4.25;0.90;;;;;;;18.82;81.79;157249.88;4979346;28;20528;-81
2022/07/05 07:16:29;;;;;;;4.45;0.80;;;;;;;19.06;81.94;157309.19;4995395;28;20034;-81
2022/07/05 07:18:56;;;;;;;10.95;1.40;;;;;;;19.04;78.72;157305.34;4947715;28;20114;-81
2022/07/05 07:21:21;;;;;;;5.18;0.80;;;;;;;18.92;77.76;157273.09;4950376;28;20053;-80
2022/07/05 07:23:47;;;;;;;5.82;1.00;;;;;;;18.63;78.74;157200.88;4990546;28;20042;-80
2022/07/05 07:26:13;;;;;;;4.40;0.90;;;;;;;18.65;81.47;157207.28;4953677;28;20066;-79
2022/07/05 07:28:40;;;;;;;4.72;0.77;;;;;;;18.63;83.13;157200.88;4989940;28;20046;-79
2022/07/05 07:31:06;;;;;;;3.55;0.98;;;;;;;18.73;82.20;157226.63;4966515;28;20045;-80
2022/07/05 07:33:33;;;;;;;7.60;0.80;;;;;;;18.89;80.82;157265.34;4965195;28;20097;-80
2022/07/05 07:35:58;;;;;;;7.78;1.08;;;;;;;18.97;82.30;157286.00;4971854;28;20504;-81
2022/07/05 07:38:25;;;;;;;2.92;0.63;;;;;;;18.91;81.06;157270.50;4984626;28;20045;-80
2022/07/05 07:40:52;;;;;;;2.63;0.55;;;;;;;18.84;79.93;157255.03;4987947;28;20038;-79
2022/07/05 07:43:17;;;;;;;5.07;0.95;;;;;;;19.00;79.27;157293.72;4986216;28;20041;-79
2022/07/05 07:45:43;;;;;;;4.47;0.70;;;;;;;19.17;76.98;157336.25;4998370;28;20030;-79
2022/07/05 07:48:09;;;;;;;5.78;0.80;;;;;;;19.27;79.66;157362.09;4970286;28;20500;-78
2022/07/05 07:50:35;;;;;;;6.90;0.82;;;;;;;19.36;76.41;157383.97;4980095;28;20034;-77
2022/07/05 07:53:00;;;;;;;4.50;0.80;;;;;;;19.28;76.77;157363.34;4964316;28;20077;-77
2022/07/05 07:55:26;;;;;;;3.65;0.70;;;;;;;19.37;73.90;157386.56;4998739;28;20046;-78
2022/07/05 07:57:52;;;;;;;3.58;0.70;;;;;;;19.61;77.02;157447.19;4994365;28;20485;-78
2022/07/05 08:00:18;;;;;;;4.18;0.80;;;;;;;19.87;76.97;157511.72;4997060;28;20405;-78
2022/07/05 08:02:44;;;;;;;9.30;0.80;;;;;;;20.18;74.64;157590.44;5004376;28;20081;-78
2022/07/05 08:05:10;;;;;;;5.80;0.73;;;;;;;20.35;69.88;157634.28;5004650;28;20057;-77
2022/07/05 08:07:36;;;;;;;3.08;0.70;;;;;;;20.29;69.83;157617.53;5008840;28;20053;-77
2022/07/05 08:10:03;;;;;;;2.08;0.50;;;;;;;19.99;72.09;157543.97;4987345;28;20037;-77
2022/07/05 08:12:29;;;;;;;1.73;0.40;;;;;;;19.38;65.54;157390.47;4984636;28;20097;-79
2022/07/05 08:14:55;;;;;;;3.70;0.47;;;;;;;18.79;65.90;157240.81;5007181;28;20464;-79
2022/07/05 08:17:20;;;;;;;2.58;0.40;;;;;;;18.65;67.80;157207.28;4970003;28;20053;-78
2022/07/05 08:22:31;;;;;;;2.03;0.30;;;;;;;19.06;58.98;157310.50;4986318;28;20398;-79
2022/07/05 08:24:57;;;;;;;1.45;0.43;;;;;;;19.46;62.44;157409.78;4966824;28;20045;-76
2022/07/05 08:27:23;;;;;;;3.95;0.40;;;;;;;19.75;62.48;157482.06;5003709;28;20038;-78
2022/07/05 08:29:49;;;;;;;0.68;0.22;;;;;;;19.97;59.21;157538.81;4972786;28;20077;-78
2022/07/05 08:32:15;;;;;;;0.65;0.30;;;;;;;20.21;56.44;157598.13;4968707;28;20066;-80
2022/07/05 08:34:41;;;;;;;1.00;0.30;;;;;;;20.27;55.62;157613.66;4976838;28;20452;-77
2022/07/05 08:37:07;;;;;;;4.10;0.20;;;;;;;20.59;59.26;157693.66;4971799;28;20046;-76
2022/07/05 08:39:33;;;;;;;1.50;0.30;;;;;;;20.83;57.08;157754.31;4983506;28;20655;-77
2022/07/05 08:41:59;;;;;;;1.40;0.30;;;;;;;21.03;59.63;157803.41;4980499;28;20050;-79
2022/07/05 08:44:27;;;;;;;0.77;0.30;;;;;;;21.21;53.24;157849.88;4985760;28;20399;-78
2022/07/05 08:46:55;;;;;;;0.40;0.10;;;;;;;21.29;50.56;157869.25;4983391;28;20552;-78
2022/07/05 08:49:26;;;;;;;1.30;0.30;;;;;;;21.24;51.50;157856.31;4988169;28;20037;-77
2022/07/05 08:51:53;;;;;;;2.92;0.20;;;;;;;21.34;52.61;157883.44;4974587;28;20045;-79
2022/07/05 08:54:19;;;;;;;0.77;0.30;;;;;;;21.06;53.26;157811.13;4975304;28;20041;-79
2022/07/05 08:56:45;;;;;;;0.93;0.30;;;;;;;20.98;52.24;157793.09;4985493;28;20038;-79
2022/07/05 08:59:11;;;;;;;1.20;0.32;;;;;;;21.21;50.78;157849.88;5004812;28;20028;-80
2022/07/05 09:01:39;;;;;;;1.42;0.38;;;;;;;21.52;54.89;157928.66;5006107;28;20039;-79
2022/07/05 09:04:07;;;;;;;1.73;0.28;;;;;;;21.71;51.96;157975.16;4966124;28;20039;-80
2022/07/05 09:06:39;;;;;;;1.02;0.35;;;;;;;21.51;53.92;157926.09;4989763;28;20509;-78
2022/07/05 09:09:05;;;;;;;2.78;0.50;;;;;;;21.16;55.31;157836.97;4983159;28;20120;-80
2022/07/05 09:11:39;;;;;;;1.45;0.35;;;;;;;21.45;55.52;157910.56;4962132;28;20042;-79
2022/07/05 09:14:07;;;;;;;1.38;0.40;;;;;;;21.43;57.48;157905.38;4995635;28;20061;-80
2022/07/05 09:16:33;;;;;;;1.27;0.40;;;;;;;21.14;55.25;157831.81;4980197;28;20061;-78
2022/07/05 09:19:07;;;;;;;1.05;0.22;;;;;;;20.80;57.41;157746.63;4957054;28;20040;-79
2022/07/05 09:21:33;;;;;;;1.42;0.35;;;;;;;20.78;57.86;157742.75;4982883;28;20038;-77
2022/07/05 09:24:03;;;;;;;2.33;0.43;;;;;;;20.82;59.48;157750.50;4992719;28;20049;-80
2022/07/05 09:26:36;;;;;;;1.17;0.30;;;;;;;20.76;57.68;157737.59;4983961;28;20113;-79
2022/07/05 09:29:04;;;;;;;3.55;0.40;;;;;;;21.14;56.55;157831.81;4975868;28;20073;-79
2022/07/05 09:31:35;;;;;;;1.15;0.20;;;;;;;21.81;53.95;158000.94;4980368;28;20049;-79
2022/07/05 09:34:06;;;;;;;0.75;0.20;;;;;;;22.22;51.70;158104.28;4953817;28;20105;-78
2022/07/05 09:36:51;;;;;;;1.00;0.30;;;;;;;21.80;52.69;157997.13;4966953;28;20178;-79
2022/07/05 09:39:34;;;;;;;3.75;0.50;;;;;;;21.21;51.93;157849.88;4993237;28;20558;-79
2022/07/05 09:42:22;;;;;;;1.95;0.40;;;;;;;21.34;59.82;157883.44;4978706;28;20034;-80
2022/07/05 09:44:58;;;;;;;3.58;0.50;;;;;;;21.45;54.63;157909.28;4969524;28;20022;-78
2022/07/05 09:47:28;;;;;;;2.47;0.40;;;;;;;21.44;57.34;157908.03;4971581;28;20034;-79
2022/07/05 09:49:55;;;;;;;2.05;0.30;;;;;;;21.14;55.84;157833.09;4967634;28;20049;-77
2022/07/05 09:52:33;;;;;;;4.82;0.43;;;;;;;21.16;57.15;157838.25;4995284;28;20370;-80
2022/07/05 09:55:10;;;;;;;1.52;0.40;;;;;;;21.44;53.76;157906.69;5023304;28;20029;-80
2022/07/05 09:57:40;;;;;;;1.60;0.30;;;;;;;21.17;54.67;157839.53;4991866;28;20412;-79
2022/07/05 10:00:06;;;;;;;3.75;0.40;;;;;;;20.99;54.38;157794.38;4959620;28;20035;-79
2022/07/05 10:02:42;;;;;;;2.92;0.30;;;;;;;20.93;53.40;157780.16;4993005;28;20150;-78
2022/07/05 10:05:12;;;;;;;2.35;0.30;;;;;;;20.90;58.29;157772.41;4986407;28;20047;-79
2022/07/05 10:07:45;;;;;;;2.75;0.32;;;;;;;21.09;58.16;157820.16;5011950;28;20042;-79
2022/07/05 10:10:14;;;;;;;1.48;0.30;;;;;;;21.24;59.91;157857.59;5005127;28;20038;-78
2022/07/05 10:12:41;;;;;;;2.05;0.30;;;;;;;21.28;50.20;157867.94;4985006;28;20042;-79
2022/07/05 10:15:09;;;;;;;0.82;0.30;;;;;;;21.44;51.55;157908.03;4991817;28;20186;-79
2022/07/05 10:17:39;;;;;;;2.95;0.25;;;;;;;21.38;54.05;157892.50;4996992;28;20046;-77
2022/07/05 10:20:14;;;;;;;2.38;0.60;;;;;;;21.06;53.98;157812.44;4990210;28;20480;-78
2022/07/05 10:22:40;;;;;;;3.58;0.32;;;;;;;21.41;53.12;157898.94;4960984;28;20042;-79
2022/07/05 10:25:07;;;;;;;1.48;0.30;;;;;;;21.99;54.22;158044.91;4972229;28;20050;-79
2022/07/05 10:27:34;;;;;;;3.55;0.68;;;;;;;22.30;48.68;158125.03;4978336;28;20041;-79
2022/07/05 10:30:01;;;;;;;1.60;0.40;;;;;;;22.57;46.72;158192.19;5005963;28;20230;-78
2022/07/05 10:32:28;;;;;;;2.88;0.25;;;;;;;22.83;49.49;158256.75;4990555;28;20042;-78
2022/07/05 10:34:55;;;;;;;1.60;0.40;;;;;;;23.08;48.23;158321.41;4981777;28;20042;-79
2022/07/05 10:37:27;;;;;;;1.08;0.35;;;;;;;23.11;47.95;158327.88;4984710;28;20113;-81
2022/07/05 10:39:55;;;;;;;0.88;0.20;;;;;;;23.10;45.48;158325.31;4969479;28;20089;-80
2022/07/05 10:42:23;;;;;;;2.78;0.40;;;;;;;23.37;49.50;158393.78;4966342;28;20053;-81
2022/07/05 10:44:48;;;;;;;1.85;0.35;;;;;;;23.52;46.69;158432.53;4987663;28;20030;-79
2022/07/05 10:47:14;;;;;;;1.70;0.30;;;;;;;23.52;46.14;158431.25;4980024;28;20057;-78
2022/07/05 10:49:41;;;;;;;1.83;0.38;;;;;;;23.10;49.36;158325.31;5001231;28;20065;-81
2022/07/05 10:52:24;;;;;;;2.40;0.45;;;;;;;22.30;49.16;158125.03;4948536;28;20038;-80
2022/07/05 10:55:18;;;;;;;2.55;0.40;;;;;;;23.10;51.72;158326.59;4996796;28;20045;-79
2022/07/05 10:58:16;;;;;;;1.80;0.30;;;;;;;22.71;47.45;158227.06;4971854;28;20425;-79
2022/07/05 11:00:43;;;;;;;5.55;0.40;;;;;;;22.74;46.04;158236.09;5006070;28;20038;-80
2022/07/05 11:03:34;;;;;;;2.92;0.40;;;;;;;23.07;49.38;158318.81;4967523;28;20038;-81
2022/07/05 11:06:01;;;;;;;0.95;0.30;;;;;;;23.30;44.42;158375.66;5003431;28;20061;-81
2022/07/05 11:08:27;;;;;;;3.85;0.40;;;;;;;23.53;47.98;158433.88;4989245;28;20034;-80
2022/07/05 11:11:12;;;;;;;2.72;0.38;;;;;;;23.50;44.64;158426.09;4988842;28;20578;-81
2022/07/05 11:13:46;;;;;;;1.33;0.30;;;;;;;23.50;47.47;158426.09;4987752;28;20047;-81
2022/07/05 11:16:23;;;;;;;1.52;0.20;;;;;;;23.39;48.02;158397.66;4982638;28;20069;-81
2022/07/05 11:18:51;;;;;;;1.23;0.32;;;;;;;23.61;44.00;158454.53;5007131;28;20038;-81
2022/07/05 11:21:18;;;;;;;0.52;0.28;;;;;;;22.98;49.20;158294.22;4992230;28;20037;-80
2022/07/05 11:23:44;;;;;;;0.63;0.43;;;;;;;22.71;50.60;158228.31;4972194;28;20038;-81
2022/07/05 11:26:11;;;;;;;1.50;0.47;;;;;;;22.57;51.73;158192.19;4974531;28;20030;-80